Time;durP1;ratioP1;P1;durP2;ratioP2;P2;SDS_P1;SDS_P2;PMS_P1;PMS_P2;Temp;Humidity;BMP_temperature;BMP_pressure;BME280_temperature;BME280_humidity;BME280_pressure;Samples;Min_cycle;Max_cycle;Signal;HPM_P1;HPM_P2
2023/05/22 00:00:17;;;;;;;35.05;20.15;;;15.60;99.90;;;;;;5112682;28;20188;-72
2023/05/22 00:02:43;;;;;;;36.90;23.33;;;15.50;99.90;;;;;;5112596;28;20180;-73
2023/05/22 00:05:13;;;;;;;43.38;25.35;;;15.70;99.90;;;;;;5071557;28;20233;-72
2023/05/22 00:07:40;;;;;;;46.72;26.52;;;15.70;99.90;;;;;;5101595;28;20656;-73
2023/05/22 00:10:06;;;;;;;42.50;27.63;;;15.60;99.90;;;;;;5094800;28;20240;-72
2023/05/22 00:12:32;;;;;;;36.90;24.35;;;15.60;99.90;;;;;;5112155;28;20255;-72
2023/05/22 00:14:58;;;;;;;43.67;25.23;;;15.80;99.90;;;;;;5098049;28;20267;-72
2023/05/22 00:17:25;;;;;;;40.20;21.65;;;15.70;99.90;;;;;;5112661;28;20246;-72
2023/05/22 00:19:52;;;;;;;38.40;20.70;;;15.80;99.90;;;;;;5112593;28;20231;-72
2023/05/22 00:22:18;;;;;;;32.17;20.23;;;15.60;99.90;;;;;;5112844;28;20180;-72
2023/05/22 00:24:44;;;;;;;40.92;23.58;;;15.60;99.90;;;;;;5083228;28;20234;-72
2023/05/22 00:27:10;;;;;;;37.70;22.23;;;15.60;99.90;;;;;;5112584;28;20192;-73
2023/05/22 00:29:36;;;;;;;35.38;21.23;;;15.40;99.90;;;;;;5112365;28;20653;-72
2023/05/22 00:32:02;;;;;;;43.10;21.63;;;15.50;99.90;;;;;;5083387;28;20185;-72
2023/05/22 00:34:27;;;;;;;55.53;25.10;;;15.50;99.90;;;;;;5103094;28;20592;-72
2023/05/22 00:36:53;;;;;;;41.10;25.05;;;15.50;99.90;;;;;;5093535;28;20211;-72
2023/05/22 00:39:19;;;;;;;43.35;24.70;;;15.50;99.90;;;;;;5099861;28;20184;-72
2023/05/22 00:41:45;;;;;;;37.03;24.65;;;15.50;99.90;;;;;;5112955;28;20229;-72
2023/05/22 00:44:10;;;;;;;40.08;22.63;;;15.40;99.90;;;;;;5116223;28;20663;-72
2023/05/22 00:46:36;;;;;;;34.35;21.58;;;15.50;99.90;;;;;;5106779;28;20195;-72
2023/05/22 00:49:03;;;;;;;40.97;24.58;;;15.50;99.90;;;;;;5111326;28;20211;-73
2023/05/22 00:51:29;;;;;;;37.55;20.98;;;15.60;99.90;;;;;;5116478;28;20190;-72
2023/05/22 00:53:55;;;;;;;34.00;20.95;;;15.60;99.90;;;;;;5110749;28;20559;-73
2023/05/22 00:56:21;;;;;;;46.72;24.80;;;15.60;99.90;;;;;;5101574;28;20212;-72
2023/05/22 00:58:47;;;;;;;38.30;21.23;;;15.50;99.90;;;;;;5090533;28;20529;-74
2023/05/22 01:01:14;;;;;;;33.33;21.48;;;15.60;99.90;;;;;;5089454;28;20206;-72
2023/05/22 01:03:43;;;;;;;35.58;21.00;;;15.70;99.90;;;;;;5097133;28;20177;-72
2023/05/22 01:06:13;;;;;;;38.80;22.65;;;15.70;99.90;;;;;;5100105;28;20186;-72
2023/05/22 01:08:41;;;;;;;32.97;20.05;;;15.70;99.90;;;;;;5115606;28;20180;-73
2023/05/22 01:11:31;;;;;;;36.22;20.27;;;15.60;99.90;;;;;;5101179;28;20183;-73
2023/05/22 01:14:19;;;;;;;42.80;21.20;;;15.50;99.90;;;;;;5073218;28;20192;-72
2023/05/22 01:16:58;;;;;;;35.85;18.48;;;15.50;99.90;;;;;;5093127;28;20211;-72
2023/05/22 01:19:30;;;;;;;37.53;20.20;;;15.60;99.90;;;;;;5114350;28;20676;-73
2023/05/22 01:22:23;;;;;;;32.10;19.30;;;15.50;99.90;;;;;;5095735;28;20187;-73
2023/05/22 01:24:59;;;;;;;31.92;18.63;;;15.50;99.90;;;;;;5078830;28;20189;-72
2023/05/22 01:27:47;;;;;;;33.97;18.08;;;15.60;99.90;;;;;;5109384;28;20751;-73
2023/05/22 01:30:18;;;;;;;28.10;18.92;;;15.60;99.90;;;;;;5104026;28;20187;-72
2023/05/22 01:32:46;;;;;;;39.58;21.73;;;15.60;99.90;;;;;;5094911;28;20188;-72
2023/05/22 01:35:16;;;;;;;38.63;22.77;;;15.70;99.90;;;;;;5109024;28;20185;-73
2023/05/22 01:37:43;;;;;;;35.97;23.40;;;15.70;99.90;;;;;;5093266;28;20208;-73
2023/05/22 01:40:11;;;;;;;39.00;24.77;;;15.70;99.90;;;;;;5111596;28;20174;-72
2023/05/22 01:42:39;;;;;;;39.13;23.20;;;15.60;99.90;;;;;;5088099;28;20184;-73
2023/05/22 01:45:10;;;;;;;48.03;23.67;;;15.70;99.90;;;;;;5085116;28;20276;-73
2023/05/22 01:47:36;;;;;;;35.58;23.55;;;15.60;99.90;;;;;;5107006;28;20182;-72
2023/05/22 01:50:03;;;;;;;49.65;28.20;;;15.70;99.90;;;;;;5114413;28;20184;-73
2023/05/22 01:52:44;;;;;;;48.00;23.85;;;15.70;99.90;;;;;;5114574;28;20209;-73
2023/05/22 01:55:19;;;;;;;43.80;23.52;;;15.60;99.90;;;;;;5110144;28;20184;-72
2023/05/22 01:58:01;;;;;;;38.67;22.63;;;15.70;99.90;;;;;;5108577;28;20218;-72
2023/05/22 02:00:28;;;;;;;37.60;23.25;;;15.70;99.90;;;;;;5115072;28;20183;-72
2023/05/22 02:02:58;;;;;;;38.15;20.20;;;15.60;99.90;;;;;;5114222;28;20184;-73
2023/05/22 02:05:26;;;;;;;43.05;24.85;;;15.60;99.90;;;;;;5081995;28;20176;-72
2023/05/22 02:07:57;;;;;;;39.15;22.00;;;15.60;99.90;;;;;;5095796;28;20233;-72
2023/05/22 02:10:24;;;;;;;38.90;20.48;;;15.50;99.90;;;;;;5100157;28;20676;-72
2023/05/22 02:12:50;;;;;;;34.45;20.42;;;15.50;99.90;;;;;;5105783;28;20259;-72
2023/05/22 02:15:16;;;;;;;40.70;20.85;;;15.50;99.90;;;;;;5108833;28;20246;-72
2023/05/22 02:17:44;;;;;;;38.25;19.50;;;15.50;99.90;;;;;;5089560;28;20211;-73
2023/05/22 02:20:14;;;;;;;38.47;22.70;;;15.40;99.90;;;;;;5109104;28;20227;-72
2023/05/22 02:22:42;;;;;;;41.35;23.98;;;15.50;99.90;;;;;;5107636;28;20668;-72
2023/05/22 02:25:13;;;;;;;40.22;20.63;;;15.40;99.90;;;;;;5098734;28;20185;-71
2023/05/22 02:27:40;;;;;;;39.78;21.75;;;15.40;99.90;;;;;;5078306;28;20183;-72
2023/05/22 02:30:07;;;;;;;32.10;18.83;;;15.40;99.90;;;;;;5096382;28;20184;-74
2023/05/22 02:32:32;;;;;;;35.90;20.42;;;15.40;99.90;;;;;;5076924;28;20180;-72
2023/05/22 02:34:58;;;;;;;32.75;17.42;;;15.50;99.90;;;;;;5078193;28;20551;-71
2023/05/22 02:37:24;;;;;;;32.47;19.33;;;15.30;99.90;;;;;;5095456;28;20720;-72
2023/05/22 02:39:50;;;;;;;38.83;20.75;;;15.30;99.90;;;;;;5079212;28;20631;-72
2023/05/22 02:42:15;;;;;;;39.80;19.90;;;15.30;99.90;;;;;;5110049;28;20268;-71
2023/05/22 02:44:41;;;;;;;44.47;21.23;;;15.10;99.90;;;;;;5108891;28;20181;-72
2023/05/22 02:47:07;;;;;;;47.28;21.33;;;15.10;99.90;;;;;;5093131;28;20564;-71
2023/05/22 02:49:32;;;;;;;41.50;21.88;;;15.10;99.90;;;;;;5105427;28;20191;-72
2023/05/22 02:51:58;;;;;;;40.30;21.35;;;15.00;99.90;;;;;;5073270;28;20188;-71
2023/05/22 02:54:23;;;;;;;45.00;22.77;;;15.20;99.90;;;;;;5084487;28;20188;-72
2023/05/22 02:56:49;;;;;;;45.88;21.00;;;15.20;99.90;;;;;;5113362;28;20226;-71
2023/05/22 02:59:15;;;;;;;49.13;22.60;;;15.10;99.90;;;;;;5107876;28;20187;-72
2023/05/22 03:01:41;;;;;;;51.22;23.75;;;15.30;99.90;;;;;;5094806;28;20180;-72
2023/05/22 03:04:06;;;;;;;49.58;25.35;;;15.30;99.90;;;;;;5072009;28;20185;-72
2023/05/22 03:06:33;;;;;;;44.45;24.38;;;15.20;99.90;;;;;;5088053;28;20191;-72
2023/05/22 03:08:59;;;;;;;53.00;24.60;;;15.20;99.90;;;;;;5099078;28;20187;-72
2023/05/22 03:11:25;;;;;;;50.40;24.95;;;15.20;99.90;;;;;;5113342;28;20271;-73
2023/05/22 03:13:51;;;;;;;47.75;24.05;;;15.20;99.90;;;;;;5111006;28;20203;-72
2023/05/22 03:16:17;;;;;;;49.88;22.88;;;15.20;99.90;;;;;;5110095;28;20220;-72
2023/05/22 03:18:42;;;;;;;55.55;24.77;;;15.20;99.90;;;;;;5113030;28;20228;-72
2023/05/22 03:21:08;;;;;;;49.92;24.10;;;15.10;99.90;;;;;;5095176;28;20183;-72
2023/05/22 03:23:33;;;;;;;49.08;24.17;;;15.10;99.90;;;;;;5101351;28;20184;-72
2023/05/22 03:25:59;;;;;;;47.50;23.52;;;15.20;99.90;;;;;;5111736;28;20187;-72
2023/05/22 03:28:25;;;;;;;45.80;22.35;;;15.30;99.90;;;;;;5106370;28;20521;-72
2023/05/22 03:30:51;;;;;;;55.15;23.20;;;15.40;99.90;;;;;;5060865;28;20184;-72
2023/05/22 03:33:17;;;;;;;48.45;21.40;;;15.30;99.90;;;;;;5066802;28;20325;-74
2023/05/22 03:35:43;;;;;;;47.63;21.67;;;15.30;99.90;;;;;;5112455;28;20683;-72
2023/05/22 03:38:09;;;;;;;45.13;23.08;;;15.20;99.90;;;;;;5102265;28;20680;-72
2023/05/22 03:40:34;;;;;;;54.10;26.83;;;15.30;99.90;;;;;;5112583;28;20188;-72
2023/05/22 03:43:00;;;;;;;45.00;25.17;;;15.30;99.90;;;;;;5112660;28;20187;-72
2023/05/22 03:45:26;;;;;;;48.58;24.63;;;15.30;99.90;;;;;;5112899;28;20211;-72
2023/05/22 03:47:51;;;;;;;51.30;24.75;;;15.30;99.90;;;;;;5110368;28;20550;-71
2023/05/22 03:50:17;;;;;;;55.08;25.42;;;15.30;99.90;;;;;;5103404;28;20186;-72
2023/05/22 03:52:42;;;;;;;55.08;25.30;;;15.30;99.90;;;;;;5094684;28;20207;-72
2023/05/22 03:55:08;;;;;;;50.25;24.88;;;15.20;99.90;;;;;;5112988;28;20184;-72
2023/05/22 03:57:34;;;;;;;50.75;25.58;;;15.10;99.90;;;;;;5110507;28;20207;-72
2023/05/22 04:00:08;;;;;;;42.67;24.55;;;15.10;99.90;;;;;;5093050;28;20180;-71
2023/05/22 04:02:37;;;;;;;46.42;25.40;;;15.10;99.90;;;;;;5078235;28;20188;-72
2023/05/22 04:05:07;;;;;;;45.53;24.25;;;15.10;99.90;;;;;;5112753;28;20188;-72
2023/05/22 04:07:32;;;;;;;41.83;23.35;;;15.20;99.90;;;;;;5095553;28;20195;-72
2023/05/22 04:09:58;;;;;;;45.60;22.73;;;15.10;99.90;;;;;;5094361;28;20180;-72
2023/05/22 04:12:23;;;;;;;44.13;23.35;;;15.10;99.90;;;;;;5077462;28;20194;-72
2023/05/22 04:14:49;;;;;;;42.45;23.58;;;15.20;99.90;;;;;;5077741;28;20267;-72
2023/05/22 04:17:15;;;;;;;50.08;25.10;;;15.10;99.90;;;;;;5113335;28;20326;-72
2023/05/22 04:19:40;;;;;;;44.35;23.23;;;15.00;99.90;;;;;;5058488;28;20259;-72
2023/05/22 04:22:06;;;;;;;42.60;22.45;;;15.00;99.90;;;;;;5108630;28;20548;-71
2023/05/22 04:24:32;;;;;;;47.33;24.55;;;15.00;99.90;;;;;;5112182;28;20180;-72
2023/05/22 04:26:59;;;;;;;40.38;22.40;;;15.10;99.90;;;;;;5098219;28;20548;-73
2023/05/22 04:29:25;;;;;;;51.15;24.83;;;15.00;99.90;;;;;;5117319;28;20180;-74
2023/05/22 04:31:53;;;;;;;50.05;25.88;;;15.00;99.90;;;;;;5115623;28;20192;-74
2023/05/22 04:34:19;;;;;;;50.78;25.20;;;15.00;99.90;;;;;;5087143;28;20705;-73
2023/05/22 04:36:45;;;;;;;46.95;24.80;;;15.10;99.90;;;;;;5110559;28;20213;-75
2023/05/22 04:39:12;;;;;;;49.13;26.35;;;15.10;99.90;;;;;;5079586;28;20212;-76
2023/05/22 04:41:39;;;;;;;47.47;26.30;;;15.10;99.90;;;;;;5084735;28;20203;-77
2023/05/22 04:44:05;;;;;;;44.13;24.55;;;15.10;99.90;;;;;;5098063;28;20210;-77
2023/05/22 04:46:33;;;;;;;51.25;26.63;;;15.20;99.90;;;;;;5082685;28;20184;-75
2023/05/22 04:49:00;;;;;;;50.45;25.40;;;15.20;99.90;;;;;;5110416;28;20321;-75
2023/05/22 04:51:27;;;;;;;53.17;28.77;;;15.30;99.90;;;;;;5095397;28;20290;-75
2023/05/22 04:53:54;;;;;;;57.92;26.83;;;15.20;99.90;;;;;;5116143;28;20180;-76
2023/05/22 04:56:21;;;;;;;58.00;24.77;;;15.30;99.90;;;;;;5086733;28;20560;-77
2023/05/22 04:58:50;;;;;;;56.65;26.55;;;15.20;99.90;;;;;;5115432;28;20183;-77
2023/05/22 05:01:15;;;;;;;57.45;26.77;;;15.20;99.90;;;;;;5115346;28;20184;-76
2023/05/22 05:03:42;;;;;;;54.30;27.08;;;15.20;99.90;;;;;;5113244;28;20703;-75
2023/05/22 05:06:07;;;;;;;67.13;27.88;;;15.20;99.90;;;;;;5051204;28;20188;-75
2023/05/22 05:08:33;;;;;;;57.22;24.23;;;15.20;99.90;;;;;;5098111;28;20183;-75
2023/05/22 05:10:59;;;;;;;53.10;23.70;;;15.40;99.90;;;;;;5093123;28;20195;-76
2023/05/22 05:13:24;;;;;;;55.83;26.30;;;15.40;99.90;;;;;;5080737;28;20199;-75
2023/05/22 05:15:50;;;;;;;62.45;27.25;;;15.30;99.90;;;;;;5097241;28;20186;-76
2023/05/22 05:18:18;;;;;;;58.65;26.67;;;15.30;99.90;;;;;;5103699;28;20270;-75
2023/05/22 05:20:43;;;;;;;58.83;27.17;;;15.40;99.90;;;;;;5093005;28;20183;-76
2023/05/22 05:23:09;;;;;;;48.92;24.80;;;15.50;99.90;;;;;;5115340;28;20180;-72
2023/05/22 05:25:37;;;;;;;56.38;26.13;;;15.50;99.90;;;;;;5095874;28;20198;-76
2023/05/22 05:28:10;;;;;;;54.92;24.10;;;15.40;99.90;;;;;;5102526;28;20649;-76
2023/05/22 05:30:37;;;;;;;58.60;26.67;;;15.50;99.90;;;;;;5088125;28;20234;-82
2023/05/22 05:33:03;;;;;;;55.25;25.55;;;15.50;99.90;;;;;;5101088;28;20176;-78
2023/05/22 05:35:28;;;;;;;54.72;25.15;;;15.50;99.90;;;;;;5096792;28;20222;-73
2023/05/22 05:37:54;;;;;;;50.75;25.27;;;15.60;99.90;;;;;;5094837;28;20220;-76
2023/05/22 05:40:20;;;;;;;52.25;25.77;;;15.60;99.90;;;;;;5114588;28;20188;-76
2023/05/22 05:42:45;;;;;;;55.15;25.30;;;15.60;99.90;;;;;;5077350;28;20188;-75
2023/05/22 05:45:12;;;;;;;52.97;27.08;;;15.70;99.90;;;;;;5076010;28;20188;-76
2023/05/22 05:47:39;;;;;;;63.45;27.13;;;15.60;99.90;;;;;;5084665;28;20658;-76
2023/05/22 05:50:05;;;;;;;53.67;25.33;;;15.70;99.90;;;;;;5096118;28;20184;-77
2023/05/22 05:52:32;;;;;;;49.25;22.50;;;15.60;99.90;;;;;;5086363;28;20184;-78
2023/05/22 05:54:59;;;;;;;61.78;25.92;;;15.60;99.90;;;;;;5091716;28;20266;-76
2023/05/22 05:57:25;;;;;;;64.55;27.17;;;15.50;99.90;;;;;;5091532;28;20694;-77
2023/05/22 05:59:51;;;;;;;62.20;25.27;;;15.50;99.90;;;;;;5114332;28;20191;-76
2023/05/22 06:02:17;;;;;;;59.47;26.27;;;15.70;99.90;;;;;;5114708;28;20180;-76
2023/05/22 06:04:47;;;;;;;46.38;22.77;;;15.80;99.90;;;;;;5096166;28;20249;-77
2023/05/22 06:07:16;;;;;;;65.32;26.90;;;15.70;99.90;;;;;;5081520;28;20545;-77
2023/05/22 06:09:41;;;;;;;52.30;25.02;;;15.60;99.90;;;;;;5085936;28;20225;-76
2023/05/22 06:12:11;;;;;;;55.45;26.27;;;15.50;99.90;;;;;;5092907;28;20184;-78
2023/05/22 06:14:38;;;;;;;48.38;24.73;;;15.50;99.90;;;;;;5103384;28;20596;-77
2023/05/22 06:17:05;;;;;;;65.20;25.80;;;15.60;99.90;;;;;;5112503;28;20210;-77
2023/05/22 06:19:30;;;;;;;62.38;25.40;;;15.80;99.90;;;;;;5078828;28;20224;-79
2023/05/22 06:21:56;;;;;;;55.78;27.38;;;15.70;99.90;;;;;;5083366;28;20189;-78
2023/05/22 06:24:22;;;;;;;53.28;25.45;;;15.80;99.90;;;;;;5108033;28;20180;-76
2023/05/22 06:26:47;;;;;;;57.05;24.08;;;15.80;99.90;;;;;;5108663;28;20188;-77
2023/05/22 06:29:13;;;;;;;57.78;25.38;;;15.90;99.90;;;;;;5095970;28;20613;-77
2023/05/22 06:31:39;;;;;;;65.07;26.85;;;16.00;99.90;;;;;;5114408;28;20644;-76
2023/05/22 06:34:05;;;;;;;63.63;25.65;;;16.00;99.90;;;;;;5101591;28;20176;-77
2023/05/22 06:36:33;;;;;;;62.38;28.13;;;16.00;99.90;;;;;;5114196;28;20203;-79
2023/05/22 06:38:59;;;;;;;71.22;28.65;;;16.10;99.90;;;;;;5096392;28;20176;-78
2023/05/22 06:41:25;;;;;;;72.53;29.95;;;16.20;99.90;;;;;;5107908;28;20281;-77
2023/05/22 06:43:50;;;;;;;71.70;29.98;;;16.20;99.90;;;;;;5112840;28;20270;-77
2023/05/22 06:46:16;;;;;;;82.13;31.50;;;16.10;99.90;;;;;;5091384;28;20196;-77
2023/05/22 06:48:42;;;;;;;69.43;29.75;;;16.00;99.90;;;;;;5103289;28;20188;-77
2023/05/22 06:51:10;;;;;;;67.22;30.52;;;16.00;99.90;;;;;;5110564;28;20187;-77
2023/05/22 06:53:36;;;;;;;82.80;36.20;;;16.10;99.90;;;;;;5112030;28;20183;-78
2023/05/22 06:56:02;;;;;;;89.03;32.70;;;16.20;99.90;;;;;;5086067;28;20184;-77
2023/05/22 06:58:27;;;;;;;86.43;34.90;;;16.10;99.90;;;;;;5113180;28;20180;-77
2023/05/22 07:00:54;;;;;;;91.43;38.90;;;16.10;99.90;;;;;;5114141;28;20184;-78
2023/05/22 07:03:20;;;;;;;76.93;32.95;;;16.10;99.90;;;;;;5091318;28;20180;-78
2023/05/22 07:05:46;;;;;;;75.93;35.25;;;16.20;99.90;;;;;;5062081;28;20265;-78
2023/05/22 07:08:11;;;;;;;69.85;30.73;;;16.20;99.90;;;;;;5113061;28;20220;-79
2023/05/22 07:10:37;;;;;;;78.38;34.75;;;16.20;99.90;;;;;;5080612;28;20183;-78
2023/05/22 07:13:03;;;;;;;85.47;34.67;;;16.30;99.90;;;;;;5114148;28;20199;-78
2023/05/22 07:15:28;;;;;;;93.05;38.55;;;16.40;99.90;;;;;;5092691;28;20267;-76
2023/05/22 07:17:54;;;;;;;86.20;36.55;;;16.50;99.90;;;;;;5100808;28;20294;-77
2023/05/22 07:20:20;;;;;;;92.22;38.30;;;16.60;99.90;;;;;;5112837;28;20249;-76
2023/05/22 07:22:45;;;;;;;89.60;37.03;;;16.50;99.90;;;;;;5071926;28;20184;-78
2023/05/22 07:25:11;;;;;;;87.18;36.10;;;16.60;99.90;;;;;;5086979;28;20191;-78
2023/05/22 07:27:37;;;;;;;92.00;37.28;;;16.80;99.90;;;;;;5090939;28;20225;-77
2023/05/22 07:30:03;;;;;;;86.53;36.72;;;16.80;99.90;;;;;;5093575;28;20226;-77
2023/05/22 07:32:28;;;;;;;95.40;38.90;;;16.90;99.90;;;;;;5109327;28;20660;-79
2023/05/22 07:34:54;;;;;;;92.03;40.28;;;17.00;99.90;;;;;;5088145;28;20191;-78
2023/05/22 07:37:21;;;;;;;89.68;39.95;;;17.10;99.90;;;;;;5077888;28;20216;-79
2023/05/22 07:39:46;;;;;;;82.78;37.38;;;17.00;99.90;;;;;;5112559;28;20184;-79
2023/05/22 07:42:13;;;;;;;88.72;35.92;;;17.00;99.90;;;;;;5103631;28;20202;-78
2023/05/22 07:44:40;;;;;;;86.45;37.20;;;16.90;99.90;;;;;;5090201;28;20259;-79
2023/05/22 07:47:05;;;;;;;86.70;35.58;;;17.00;99.90;;;;;;5113374;28;20183;-78
2023/05/22 07:49:32;;;;;;;97.22;39.47;;;17.00;99.90;;;;;;5110246;28;20543;-78
2023/05/22 07:51:57;;;;;;;95.25;37.90;;;17.30;99.90;;;;;;5102905;28;20188;-77
2023/05/22 07:54:23;;;;;;;92.30;38.28;;;17.30;99.90;;;;;;5112320;28;20271;-78
2023/05/22 07:56:49;;;;;;;86.75;37.30;;;17.40;99.90;;;;;;5113396;28;20276;-77
2023/05/22 07:59:17;;;;;;;84.63;35.80;;;17.60;99.90;;;;;;5112994;28;20216;-78
2023/05/22 08:01:43;;;;;;;85.90;37.80;;;17.70;99.90;;;;;;5107846;28;20180;-78
2023/05/22 08:04:08;;;;;;;86.85;36.40;;;17.70;99.90;;;;;;5087996;28;20192;-79
2023/05/22 08:06:34;;;;;;;86.57;36.92;;;17.70;99.90;;;;;;5106082;28;20538;-79
2023/05/22 08:09:01;;;;;;;94.75;37.38;;;17.80;99.90;;;;;;5108153;28;20193;-79
2023/05/22 08:11:27;;;;;;;88.07;38.03;;;17.80;99.90;;;;;;5094156;28;20192;-79
2023/05/22 08:13:53;;;;;;;87.55;38.30;;;17.60;99.90;;;;;;5112882;28;20262;-78
2023/05/22 08:16:19;;;;;;;93.07;37.10;;;17.50;99.90;;;;;;5088526;28;20183;-80
2023/05/22 08:18:44;;;;;;;88.22;37.90;;;17.80;99.90;;;;;;5077047;28;20706;-79
2023/05/22 08:21:10;;;;;;;97.90;36.88;;;17.90;99.90;;;;;;5095167;28;20180;-79
2023/05/22 08:23:37;;;;;;;90.25;36.92;;;17.70;99.90;;;;;;5095036;28;20183;-79
2023/05/22 08:26:03;;;;;;;91.38;39.35;;;17.70;99.90;;;;;;5108507;28;20184;-79
2023/05/22 08:28:29;;;;;;;86.18;34.55;;;17.70;99.90;;;;;;5102504;28;20189;-79
2023/05/22 08:30:54;;;;;;;90.10;38.17;;;17.70;99.90;;;;;;5076122;28;20549;-78
2023/05/22 08:33:20;;;;;;;84.13;37.13;;;17.90;99.90;;;;;;5094970;28;20249;-79
2023/05/22 08:35:46;;;;;;;100.38;40.58;;;17.90;99.90;;;;;;5093771;28;20194;-78
2023/05/22 08:38:12;;;;;;;95.03;40.42;;;17.90;99.90;;;;;;5112532;28;20207;-79
2023/05/22 08:40:39;;;;;;;96.88;41.63;;;18.10;99.90;;;;;;5111887;28;20176;-80
2023/05/22 08:43:05;;;;;;;86.07;38.90;;;18.00;99.90;;;;;;5112388;28;20176;-79
2023/05/22 08:45:34;;;;;;;99.75;41.97;;;18.20;99.90;;;;;;5105175;28;20207;-81
2023/05/22 08:48:04;;;;;;;99.97;44.08;;;18.30;99.90;;;;;;5084250;28;20518;-79
2023/05/22 08:50:31;;;;;;;98.18;41.38;;;18.10;99.90;;;;;;5083905;28;20189;-79
2023/05/22 08:53:03;;;;;;;103.38;43.90;;;17.80;99.90;;;;;;5108329;28;20271;-79
2023/05/22 08:55:29;;;;;;;104.28;45.17;;;17.80;99.90;;;;;;5112495;28;20215;-79
2023/05/22 08:57:56;;;;;;;105.60;43.45;;;17.80;99.90;;;;;;5087294;28;20571;-79
2023/05/22 09:00:22;;;;;;;95.65;44.22;;;17.90;99.90;;;;;;5111979;28;20176;-79
2023/05/22 09:02:49;;;;;;;103.72;45.05;;;17.90;99.90;;;;;;5111983;28;20184;-79
2023/05/22 09:05:18;;;;;;;109.60;49.13;;;17.70;99.90;;;;;;5113925;28;20652;-78
2023/05/22 09:07:44;;;;;;;109.05;43.95;;;17.70;99.90;;;;;;5092176;28;20188;-79
2023/05/22 09:10:10;;;;;;;103.70;46.20;;;17.90;99.90;;;;;;5090089;28;20195;-79
2023/05/22 09:12:36;;;;;;;95.32;42.50;;;18.10;99.90;;;;;;5101986;28;20180;-80
2023/05/22 09:15:09;;;;;;;95.20;42.67;;;18.00;99.90;;;;;;5106167;28;20183;-79
2023/05/22 09:17:38;;;;;;;96.68;42.60;;;18.20;99.90;;;;;;5101297;28;20200;-80
2023/05/22 09:20:05;;;;;;;105.43;43.67;;;18.50;99.90;;;;;;5115945;28;20223;-79
2023/05/22 09:22:37;;;;;;;95.18;39.08;;;18.60;99.90;;;;;;5106361;28;20184;-79
2023/05/22 09:25:03;;;;;;;93.78;40.70;;;18.90;99.90;;;;;;5115679;28;20184;-79
2023/05/22 09:27:29;;;;;;;86.50;41.15;;;18.80;99.90;;;;;;5115516;28;20660;-79
2023/05/22 09:29:56;;;;;;;104.03;44.10;;;18.80;99.90;;;;;;5106458;28;20236;-79
2023/05/22 09:32:22;;;;;;;102.55;42.97;;;18.90;99.90;;;;;;5109178;28;20188;-79
2023/05/22 09:34:49;;;;;;;70.65;36.15;;;19.10;99.90;;;;;;5102787;28;20188;-78
2023/05/22 09:37:16;;;;;;;68.80;33.05;;;18.90;99.90;;;;;;5097252;28;20612;-79
2023/05/22 09:39:44;;;;;;;76.07;34.92;;;18.80;99.90;;;;;;5060760;28;20259;-79
2023/05/22 09:42:11;;;;;;;73.30;35.05;;;18.70;99.90;;;;;;5115674;28;20176;-79
2023/05/22 09:44:38;;;;;;;71.72;35.58;;;18.50;99.90;;;;;;5091868;28;20581;-79
2023/05/22 09:47:06;;;;;;;75.05;34.10;;;18.40;99.90;;;;;;5109293;28;20187;-79
2023/05/22 09:49:44;;;;;;;64.93;34.45;;;18.50;99.90;;;;;;5112711;28;20271;-79
2023/05/22 09:52:11;;;;;;;71.68;33.15;;;18.60;99.90;;;;;;5109276;28;20205;-80
2023/05/22 09:54:53;;;;;;;81.50;37.05;;;18.90;99.90;;;;;;5114130;28;20229;-80
2023/05/22 09:57:20;;;;;;;90.75;38.95;;;19.20;99.90;;;;;;5114990;28;20218;-80
2023/05/22 09:59:56;;;;;;;64.47;33.13;;;19.30;99.90;;;;;;5104557;28;20549;-79
2023/05/22 10:02:24;;;;;;;62.47;29.05;;;19.50;99.90;;;;;;5114576;28;20206;-80
2023/05/22 10:04:50;;;;;;;59.97;30.17;;;19.70;99.90;;;;;;5084207;28;20551;-79
2023/05/22 10:07:26;;;;;;;58.08;29.52;;;19.80;99.90;;;;;;5111996;28;20411;-79
2023/05/22 10:10:02;;;;;;;60.88;30.25;;;20.00;99.90;;;;;;5092541;28;20672;-80
2023/05/22 10:12:31;;;;;;;74.90;34.65;;;20.10;99.90;;;;;;5113964;28;20209;-80
2023/05/22 10:14:59;;;;;;;74.32;33.65;;;20.20;99.90;;;;;;5114111;28;20255;-80
2023/05/22 10:17:25;;;;;;;49.42;27.83;;;20.40;99.90;;;;;;5110357;28;20217;-80
2023/05/22 10:19:53;;;;;;;42.45;23.27;;;20.30;99.90;;;;;;5085849;28;20227;-80
2023/05/22 10:22:21;;;;;;;36.47;20.60;;;20.30;99.90;;;;;;5114040;28;20183;-80
2023/05/22 10:24:50;;;;;;;41.92;22.67;;;20.20;99.90;;;;;;5111327;28;20191;-79
2023/05/22 10:27:17;;;;;;;39.33;22.10;;;20.20;99.90;;;;;;5083894;28;20272;-79
2023/05/22 10:30:02;;;;;;;37.33;22.10;;;20.20;99.90;;;;;;5079091;28;20211;-79
2023/05/22 10:32:36;;;;;;;36.70;21.23;;;20.30;99.90;;;;;;5114614;28;20191;-80
2023/05/22 10:35:30;;;;;;;43.03;22.17;;;20.60;99.90;;;;;;5113995;28;20253;-80
2023/05/22 10:38:24;;;;;;;37.17;20.40;;;20.70;99.90;;;;;;5114018;28;20278;-80
2023/05/22 10:40:50;;;;;;;39.00;21.50;;;20.60;99.90;;;;;;5100057;28;20198;-79
2023/05/22 10:43:16;;;;;;;44.80;21.65;;;20.60;99.90;;;;;;5106834;28;20188;-80
2023/05/22 10:45:45;;;;;;;38.47;20.75;;;20.40;99.90;;;;;;5091363;28;20654;-80
2023/05/22 10:48:11;;;;;;;46.70;22.90;;;20.50;99.90;;;;;;5092450;28;20628;-79
2023/05/22 10:50:37;;;;;;;40.75;22.60;;;20.50;99.90;;;;;;5114464;28;20274;-80
2023/05/22 10:53:25;;;;;;;45.30;23.00;;;20.40;99.90;;;;;;5109829;28;20196;-80
2023/05/22 10:55:55;;;;;;;64.82;29.67;;;20.40;99.90;;;;;;5106235;28;20214;-80
2023/05/22 10:58:26;;;;;;;65.30;32.58;;;20.40;99.90;;;;;;5095439;28;20206;-79
2023/05/22 11:01:12;;;;;;;75.00;36.42;;;20.40;99.90;;;;;;5095895;28;20275;-79
2023/05/22 11:03:56;;;;;;;74.32;34.50;;;20.40;99.90;;;;;;5108604;28;20254;-81
2023/05/22 11:06:30;;;;;;;75.07;36.95;;;20.60;99.90;;;;;;5104640;28;20171;-80
2023/05/22 11:08:56;;;;;;;72.65;36.55;;;20.50;99.90;;;;;;5109587;28;20231;-80
2023/05/22 11:11:25;;;;;;;61.05;30.67;;;20.40;99.90;;;;;;5091978;28;20184;-80
2023/05/22 11:13:51;;;;;;;69.68;34.45;;;20.60;99.90;;;;;;5094827;28;20233;-80
2023/05/22 11:16:17;;;;;;;73.95;35.15;;;20.70;99.90;;;;;;5086082;28;20294;-80
2023/05/22 11:18:43;;;;;;;64.68;32.70;;;20.80;99.90;;;;;;5089625;28;20230;-81
2023/05/22 11:21:10;;;;;;;67.95;34.47;;;20.90;99.90;;;;;;5113016;28;20716;-80
2023/05/22 11:23:36;;;;;;;71.45;32.50;;;20.60;99.90;;;;;;5077557;28;20208;-80
2023/05/22 11:26:19;;;;;;;68.30;33.10;;;20.50;99.90;;;;;;5107991;28;20208;-80
2023/05/22 11:28:52;;;;;;;63.13;34.00;;;20.50;99.90;;;;;;5106424;28;20245;-81
2023/05/22 11:31:18;;;;;;;61.33;29.90;;;20.60;99.90;;;;;;5099361;28;20172;-79
2023/05/22 11:33:45;;;;;;;61.33;31.23;;;20.80;99.90;;;;;;5094935;28;20213;-80
2023/05/22 11:36:11;;;;;;;62.33;31.85;;;21.00;99.90;;;;;;5108669;28;20234;-80
2023/05/22 11:38:39;;;;;;;55.75;28.05;;;21.10;99.90;;;;;;5104614;28;20196;-80
2023/05/22 11:41:07;;;;;;;54.05;31.30;;;21.00;99.90;;;;;;5091986;28;20211;-81
2023/05/22 11:43:35;;;;;;;69.28;32.70;;;21.10;99.90;;;;;;5109475;28;20232;-82
2023/05/22 11:46:09;;;;;;;58.17;28.67;;;21.20;99.90;;;;;;5112901;28;20211;-80
2023/05/22 11:48:35;;;;;;;55.50;28.48;;;21.50;99.90;;;;;;5086412;28;20180;-80
2023/05/22 11:51:02;;;;;;;59.55;29.10;;;21.50;99.90;;;;;;5110840;28;20640;-80
2023/05/22 11:53:31;;;;;;;50.45;27.85;;;21.70;99.90;;;;;;5106235;28;20177;-81
2023/05/22 11:56:04;;;;;;;71.10;33.10;;;21.70;99.90;;;;;;5088920;28;20183;-80
2023/05/22 11:58:31;;;;;;;60.88;31.30;;;21.80;99.90;;;;;;5099885;28;20769;-80
2023/05/22 12:00:59;;;;;;;65.53;32.25;;;21.80;99.90;;;;;;5082331;28;20584;-79
2023/05/22 12:03:25;;;;;;;65.72;33.72;;;21.70;99.90;;;;;;5111531;28;20190;-79
2023/05/22 12:05:51;;;;;;;60.10;30.05;;;21.60;99.90;;;;;;5116816;28;20244;-80
2023/05/22 12:08:17;;;;;;;61.35;31.73;;;21.60;99.90;;;;;;5091141;28;20195;-78
2023/05/22 12:10:47;;;;;;;58.55;29.23;;;21.60;99.90;;;;;;5090187;28;20228;-79
2023/05/22 12:13:13;;;;;;;61.92;30.40;;;21.70;99.90;;;;;;5086047;28;20180;-79
2023/05/22 12:15:38;;;;;;;56.35;26.13;;;22.10;99.90;;;;;;5080288;28;20180;-82
2023/05/22 12:18:08;;;;;;;54.22;28.80;;;22.10;99.90;;;;;;5094756;28;20283;-81
2023/05/22 12:20:33;;;;;;;55.42;27.60;;;22.30;99.90;;;;;;5094064;28;20644;-80
2023/05/22 12:22:59;;;;;;;51.63;26.95;;;22.40;99.90;;;;;;5094585;28;20207;-79
2023/05/22 12:25:34;;;;;;;46.30;27.60;;;22.60;99.90;;;;;;5113039;28;20262;-81
2023/05/22 12:28:00;;;;;;;48.45;26.17;;;22.80;99.90;;;;;;5091134;28;20765;-81